Grant, NE (69140)

10:31 AM MDT on May 23, 2015 (GMT -0600)
Sisco Fertilizer | | Change Station
CLOSE
Current Station
Personal Weather Station
Location: Elsie, NE
Elevation: 3415 ft
Nearby Weather Stations

Elev 3415 ft 40.84 °N, 101.40 °W | Updated 5 seconds ago

Overcast
Overcast
52.8 °F
Feels Like 52.8 °F
N
17.0
Wind Variable Wind from SE
Gusts 18.0 mph

Today
High -- | Low -- °F
--% Chance of Precip.
Yesterday
High -- | Low -- °F
Precip. -- in
5:22 AM 8:04 PM
Waxing Crescent, 31% visible
Pressure 30.04 in
Visibility 5.0 miles
Clouds Overcast 700 ft
Dew Point 52 °F
Humidity 98%
Rainfall 0.04 in
Snow Depth Not available.
UV 3 out of 12
Pollen 5.90 out of 12
Air Quality Not available.
Flu Activity No Activity
METAR KOGA 231615Z AUTO 14008KT 5SM BR OVC007 13/12 A3004 RMK AO2 T01250121

More Conditions Fewer Conditions

Pressure 30.04 in
Visibility 5.0 miles
Clouds Overcast 700 ft
Dew Point 52 °F
Humidity 98%
Rainfall 0.04 in
Snow Depth Not available.
UV 3 out of 12
Pollen 5.90 out of 12
Air Quality Not available.
Flu Activity No Activity
METAR KOGA 231615Z AUTO 14008KT 5SM BR OVC007 13/12 A3004 RMK AO2 T01250121

More Conditions Fewer Conditions

Nowcast | as of 7:11 am CDT on May 23, 2015

A combination of light rain or drizzle...with fog will be seen through the morning. Rainfall amounts will be light...where trace amounts are expected. By noontime CDT...another round of convection will be lifting north that may be a quarter inch...or more of rainfall across southwest Nebraska. If out on the roads the fog can reduce the visibility down to a mile at times.

×

10-Day Weather Forecast

Almanac

Astronomy

May. 23, 2015 Rise Set
Actual Time
Civil Twilight
Nautical Twilight
Astronomical Twilight
Moon
Length of Visible Light
Length of Day
Tomorrow will be .
, % of the Moon is Illuminated

Today's Extremes

State Highs State Lows

Community

WunderPhotos

Upload Photos

1,823,513 photos uploaded!

WunderBlogs® & News

Nearby

Air Quality

  Air Quality AQ Index Pollutant
Not available.

Snow Depth

Station Depth Elevation

Earthquake Activity

City Distance Mag. Time & Date
Minimum magnitude displayed is 2.5.

Coastal Water Temperatures

Place Temperature

Stations

Nearby Weather Stations

Station Location Temp. Windchill Dew Point Humidity Wind Precip. Elev Updated Type